createdAt,value
2022-10-30T00:00:26.518Z,44.80
2022-10-30T00:03:30.073Z,49.35
2022-10-30T00:06:35.808Z,41.50
2022-10-30T00:09:39.121Z,46.63
2022-10-30T00:12:42.535Z,40.03
2022-10-30T00:15:49.837Z,39.28
2022-10-30T00:18:53.213Z,46.88
2022-10-30T00:25:00.314Z,44.58
2022-10-30T00:28:03.744Z,39.00
2022-10-30T00:31:07.703Z,53.08
2022-10-30T00:34:11.059Z,47.58
2022-10-30T00:37:15.756Z,47.50
2022-10-30T00:40:19.638Z,46.63
2022-10-30T00:43:31.384Z,51.08
2022-10-30T00:46:37.781Z,51.88
2022-10-30T00:49:51.165Z,43.05
2022-10-30T00:53:00.374Z,52.22
2022-10-30T00:56:07.293Z,51.83
2022-10-30T00:59:14.368Z,54.05
2022-10-30T01:02:20.823Z,45.97
2022-10-30T01:05:28.161Z,47.22
2022-10-30T01:08:33.159Z,51.28
2022-10-30T01:11:36.497Z,54.60
2022-10-30T01:14:44.589Z,65.63
2022-10-30T01:18:21.069Z,60.17
2022-10-30T01:21:43.734Z,60.13
2022-10-30T01:24:59.936Z,53.05
2022-10-30T01:28:17.397Z,50.22
2022-10-30T01:31:35.135Z,46.33
2022-10-30T01:34:46.960Z,50.75
2022-10-30T01:37:58.202Z,49.10
2022-10-30T01:41:03.108Z,55.88
2022-10-30T01:44:10.377Z,56.92
2022-10-30T01:47:24.025Z,54.10
2022-10-30T01:50:37.803Z,60.38
2022-10-30T01:53:52.931Z,63.85
2022-10-30T01:57:05.567Z,54.25
2022-10-30T02:07:24.193Z,61.47
2022-10-30T02:10:28.729Z,61.20
2022-10-30T02:13:33.997Z,63.83
2022-10-30T02:16:43.700Z,59.67
2022-10-30T02:19:46.899Z,49.27
2022-10-30T02:22:56.058Z,66.72
2022-10-30T02:26:07.345Z,63.47
2022-10-30T02:29:10.551Z,64.93
2022-10-30T02:32:13.703Z,67.50
2022-10-30T02:35:17.844Z,68.53
2022-10-30T02:38:22.555Z,68.05
2022-10-30T02:41:27.336Z,69.57
2022-10-30T02:44:30.689Z,71.63
2022-10-30T02:47:34.057Z,67.53
2022-10-30T02:50:37.534Z,70.60
2022-10-30T02:53:42.661Z,69.57
2022-10-30T02:56:47.076Z,73.80
2022-10-30T02:59:51.182Z,71.47
2022-10-30T03:02:57.229Z,70.22
2022-10-30T03:06:02.064Z,71.00
2022-10-30T03:09:06.819Z,71.40
2022-10-30T03:12:10.129Z,63.20
2022-10-30T03:15:13.403Z,65.68
2022-10-30T03:18:16.719Z,65.90
2022-10-30T03:21:21.919Z,76.50
2022-10-30T03:24:26.703Z,67.85
2022-10-30T03:27:30.667Z,70.18
2022-10-30T03:30:34.584Z,80.78
2022-10-30T03:33:39.000Z,74.57
2022-10-30T03:36:42.274Z,73.78
2022-10-30T03:39:47.459Z,81.85
2022-10-30T03:42:50.875Z,78.80
2022-10-30T03:45:55.802Z,68.80
2022-10-30T03:48:59.494Z,82.95
2022-10-30T03:52:02.712Z,68.88
2022-10-30T03:55:08.442Z,74.85
2022-10-30T03:58:14.504Z,69.78
2022-10-30T04:01:18.928Z,71.60
2022-10-30T04:04:26.242Z,65.65
2022-10-30T04:07:29.859Z,72.40
2022-10-30T04:10:35.127Z,69.35
2022-10-30T04:13:41.748Z,64.97
2022-10-30T04:16:45.113Z,58.95
2022-10-30T04:19:49.359Z,71.95
2022-10-30T04:22:57.409Z,64.45
2022-10-30T04:26:04.046Z,66.28
2022-10-30T04:29:08.747Z,65.25
2022-10-30T04:32:13.043Z,66.07
2022-10-30T04:35:18.652Z,62.13
2022-10-30T04:38:22.439Z,70.10
2022-10-30T04:41:27.944Z,62.67
2022-10-30T04:44:42.560Z,66.60
2022-10-30T04:47:52.714Z,63.97
2022-10-30T04:50:59.333Z,59.63
2022-10-30T04:54:06.703Z,64.22
2022-10-30T04:57:15.683Z,59.35
2022-10-30T05:00:20.371Z,57.10
2022-10-30T05:03:25.541Z,64.32
2022-10-30T05:06:31.095Z,59.65
2022-10-30T05:09:34.743Z,58.60
2022-10-30T05:12:39.511Z,64.78
2022-10-30T05:15:42.849Z,59.72
2022-10-30T05:18:46.100Z,54.97
2022-10-30T05:21:49.327Z,70.95
2022-10-30T05:24:52.490Z,61.05
2022-10-30T05:28:00.971Z,75.47
2022-10-30T05:31:04.696Z,62.70
2022-10-30T05:34:26.211Z,67.32
2022-10-30T05:37:30.266Z,74.40
2022-10-30T05:40:35.619Z,68.28
2022-10-30T05:43:40.415Z,66.85
2022-10-30T05:46:44.712Z,72.10
2022-10-30T05:49:57.672Z,75.38
2022-10-30T05:53:04.360Z,74.05
2022-10-30T05:56:07.840Z,66.32
2022-10-30T05:59:13.734Z,70.88
2022-10-30T06:02:18.652Z,70.15
2022-10-30T06:05:21.976Z,79.68
2022-10-30T06:08:25.690Z,80.50
2022-10-30T06:11:42.216Z,70.50
2022-10-30T06:14:48.849Z,62.33
2022-10-30T06:17:52.712Z,68.90
2022-10-30T06:21:17.102Z,69.25
2022-10-30T06:24:27.343Z,65.78
2022-10-30T06:27:54.651Z,71.93
2022-10-30T06:30:59.507Z,70.78
2022-10-30T06:34:06.462Z,66.13
2022-10-30T06:37:13.313Z,74.00
2022-10-30T06:40:17.086Z,81.78
2022-10-30T06:43:44.736Z,80.90
2022-10-30T06:46:58.821Z,76.93
2022-10-30T06:50:02.061Z,69.97
2022-10-30T06:53:06.815Z,85.88
2022-10-30T06:56:11.129Z,80.05
2022-10-30T06:59:34.506Z,79.90
2022-10-30T07:02:59.519Z,76.07
2022-10-30T07:06:04.029Z,67.70
2022-10-30T07:09:08.571Z,65.18
2022-10-30T07:12:11.930Z,69.55
2022-10-30T07:15:33.986Z,67.43
2022-10-30T07:19:00.651Z,62.63
2022-10-30T07:22:07.719Z,64.28
2022-10-30T07:25:13.350Z,60.33
2022-10-30T07:28:28.883Z,55.60
2022-10-30T07:32:02.152Z,59.28
2022-10-30T07:35:13.255Z,54.92
2022-10-30T07:38:34.485Z,57.92
2022-10-30T07:41:51.654Z,56.92
2022-10-30T07:45:13.392Z,57.10
2022-10-30T07:48:36.726Z,55.63
2022-10-30T07:51:45.281Z,52.35
2022-10-30T07:54:50.187Z,56.42
2022-10-30T07:58:12.076Z,59.05
2022-10-30T08:01:34.237Z,44.78
2022-10-30T08:05:04.431Z,38.83
2022-10-30T08:08:20.209Z,51.53
2022-10-30T08:11:29.976Z,43.85
2022-10-30T08:14:35.520Z,66.95
2022-10-30T08:17:43.671Z,61.25
2022-10-30T08:20:51.466Z,54.15
2022-10-30T08:23:57.191Z,51.33
2022-10-30T08:27:03.953Z,42.85
2022-10-30T08:30:08.490Z,42.47
2022-10-30T08:33:14.583Z,40.92
2022-10-30T08:36:33.031Z,40.25
2022-10-30T08:39:37.647Z,34.97
2022-10-30T08:42:59.601Z,32.17
2022-10-30T08:46:03.585Z,35.22
2022-10-30T08:49:07.070Z,28.27
2022-10-30T08:52:14.086Z,35.88
2022-10-30T08:55:18.978Z,27.00
2022-10-30T08:58:22.267Z,32.17
2022-10-30T09:01:25.805Z,26.48
2022-10-30T09:04:47.800Z,22.92
2022-10-30T09:08:11.094Z,32.50
2022-10-30T09:11:41.384Z,22.00
2022-10-30T09:14:44.616Z,19.83
2022-10-30T09:17:48.778Z,18.90
2022-10-30T09:20:52.539Z,16.58
2022-10-30T09:23:55.789Z,22.25
2022-10-30T09:27:12.262Z,19.10
2022-10-30T09:30:25.635Z,18.90
2022-10-30T09:33:31.661Z,16.85
2022-10-30T09:36:53.588Z,15.95
2022-10-30T09:39:57.232Z,12.85
2022-10-30T09:43:08.704Z,13.32
2022-10-30T09:46:29.204Z,16.70
2022-10-30T09:49:48.291Z,10.25
2022-10-30T09:53:02.199Z,14.93
2022-10-30T09:56:10.194Z,20.10
2022-10-30T09:59:28.767Z,15.75
2022-10-30T10:02:37.030Z,13.85
2022-10-30T10:05:45.385Z,14.48
2022-10-30T10:09:14.542Z,12.45
2022-10-30T10:12:44.705Z,17.40
2022-10-30T10:15:55.331Z,15.07
2022-10-30T10:19:07.104Z,14.70
2022-10-30T10:22:21.022Z,13.38
2022-10-30T10:25:26.178Z,14.70
2022-10-30T10:28:48.969Z,13.63
2022-10-30T10:32:08.238Z,16.92
2022-10-30T10:35:54.626Z,13.15
2022-10-30T10:39:18.197Z,13.98
2022-10-30T10:42:30.994Z,10.60
2022-10-30T10:45:42.324Z,10.57
2022-10-30T10:49:04.328Z,12.80
2022-10-30T10:52:11.708Z,13.32
2022-10-30T10:55:19.649Z,10.73
2022-10-30T10:58:30.955Z,9.55
2022-10-30T11:01:39.499Z,10.25
2022-10-30T11:04:49.043Z,11.77
2022-10-30T11:07:52.482Z,12.95
2022-10-30T11:10:59.453Z,9.23
2022-10-30T11:14:02.864Z,10.90
2022-10-30T11:17:16.657Z,8.32
2022-10-30T11:20:29.273Z,7.38
2022-10-30T11:23:39.816Z,9.30
2022-10-30T11:26:44.146Z,6.90
2022-10-30T11:29:54.036Z,7.95
2022-10-30T11:32:57.816Z,8.05
2022-10-30T11:36:15.522Z,9.02
2022-10-30T11:39:21.482Z,7.30
2022-10-30T11:42:24.989Z,4.57
2022-10-30T11:45:30.937Z,6.32
2022-10-30T11:48:36.232Z,7.07
2022-10-30T11:51:44.429Z,6.40
2022-10-30T11:54:52.259Z,6.95
2022-10-30T11:57:58.822Z,7.68
2022-10-30T12:01:05.344Z,10.85
2022-10-30T12:04:17.238Z,6.70
2022-10-30T12:07:27.986Z,6.30
2022-10-30T12:10:31.962Z,9.88
2022-10-30T12:13:40.062Z,8.82
2022-10-30T12:16:48.013Z,7.63
2022-10-30T12:19:54.576Z,8.05
2022-10-30T12:22:59.528Z,6.35
2022-10-30T12:26:10.179Z,7.78
2022-10-30T12:29:18.513Z,8.18
2022-10-30T12:32:24.478Z,9.18
2022-10-30T12:35:40.565Z,11.73
2022-10-30T12:38:48.752Z,10.85
2022-10-30T12:42:00.698Z,11.65
2022-10-30T12:45:15.975Z,9.18
2022-10-30T12:48:27.993Z,8.80
2022-10-30T12:51:36.896Z,10.70
2022-10-30T12:54:48.855Z,10.30
2022-10-30T12:58:03.230Z,9.95
2022-10-30T13:01:17.241Z,10.10
2022-10-30T13:04:24.080Z,11.10
2022-10-30T13:07:34.398Z,12.88
2022-10-30T13:10:43.840Z,9.73
2022-10-30T13:13:49.733Z,13.73
2022-10-30T13:16:54.335Z,16.15
2022-10-30T13:19:57.996Z,13.85
2022-10-30T13:23:06.880Z,9.43
2022-10-30T13:26:20.419Z,11.20
2022-10-30T13:29:30.559Z,10.68
2022-10-30T13:32:46.929Z,10.95
2022-10-30T13:35:55.643Z,15.82
2022-10-30T13:39:04.468Z,14.20
2022-10-30T13:42:23.418Z,15.43
2022-10-30T13:46:07.314Z,16.23
2022-10-30T13:49:24.559Z,19.02
2022-10-30T13:52:32.088Z,13.55
2022-10-30T13:55:36.983Z,15.15
2022-10-30T13:58:48.019Z,13.95
2022-10-30T14:02:01.504Z,12.85
2022-10-30T14:05:16.674Z,15.57
2022-10-30T14:11:35.114Z,14.68
2022-10-30T14:14:48.429Z,14.55
2022-10-30T14:18:25.921Z,16.58
2022-10-30T14:21:45.323Z,14.43
2022-10-30T14:24:48.812Z,8.23
2022-10-30T14:27:57.373Z,10.23
2022-10-30T14:31:07.535Z,8.70
2022-10-30T14:34:41.904Z,12.85
2022-10-30T14:37:58.486Z,11.98
2022-10-30T14:41:34.239Z,8.60
2022-10-30T14:44:51.284Z,10.27
2022-10-30T14:48:03.229Z,8.75
2022-10-30T14:51:16.958Z,9.82
2022-10-30T14:54:27.473Z,11.85
2022-10-30T14:57:48.833Z,9.68
2022-10-30T15:00:55.154Z,15.57
2022-10-30T15:04:13.486Z,10.38
2022-10-30T15:07:25.246Z,12.52
2022-10-30T15:10:34.280Z,12.13
2022-10-30T15:13:37.771Z,12.95
2022-10-30T15:16:42.575Z,12.40
2022-10-30T15:19:47.828Z,16.95
2022-10-30T15:22:54.368Z,23.55
2022-10-30T15:26:03.644Z,15.68
2022-10-30T15:29:17.977Z,18.10
2022-10-30T15:32:23.201Z,15.07
2022-10-30T15:35:29.991Z,17.67
2022-10-30T15:38:35.092Z,23.98
2022-10-30T15:41:44.058Z,17.13
2022-10-30T15:44:48.226Z,22.35
2022-10-30T15:47:59.868Z,19.95
2022-10-30T15:51:06.696Z,22.90
2022-10-30T15:54:14.358Z,24.25
2022-10-30T15:57:56.993Z,20.15
2022-10-30T16:00:55.358Z,20.00
2022-10-30T16:03:59.050Z,20.70
2022-10-30T16:07:17.667Z,27.83
2022-10-30T16:10:21.168Z,40.30
2022-10-30T16:13:30.225Z,22.88
2022-10-30T16:16:33.710Z,30.30
2022-10-30T16:19:40.915Z,25.33
2022-10-30T16:22:45.572Z,39.30
2022-10-30T16:25:49.382Z,26.60
2022-10-30T16:28:52.794Z,26.73
2022-10-30T16:31:56.646Z,24.80
2022-10-30T16:35:02.648Z,27.92
2022-10-30T16:38:07.541Z,28.48
2022-10-30T16:41:13.552Z,28.38
2022-10-30T16:44:20.623Z,29.40
2022-10-30T16:47:26.543Z,32.45
2022-10-30T16:50:36.108Z,31.55
2022-10-30T16:53:40.912Z,19.70
2022-10-30T16:56:48.988Z,30.98
2022-10-30T16:59:53.432Z,29.98
2022-10-30T17:02:59.176Z,30.17
2022-10-30T17:06:05.206Z,33.22
2022-10-30T17:09:12.201Z,34.47
2022-10-30T17:12:20.373Z,28.33
2022-10-30T17:15:24.899Z,32.38
2022-10-30T17:18:33.370Z,27.25
2022-10-30T17:21:40.695Z,29.98
2022-10-30T17:24:47.552Z,35.65
2022-10-30T17:27:53.580Z,35.28
2022-10-30T17:30:57.068Z,31.85
2022-10-30T17:34:15.868Z,40.03
2022-10-30T17:37:19.484Z,73.55
2022-10-30T17:40:24.789Z,39.30
2022-10-30T17:43:31.164Z,41.20
2022-10-30T17:46:34.678Z,44.15
2022-10-30T17:49:38.243Z,39.53
2022-10-30T17:52:42.284Z,39.10
2022-10-30T17:55:51.648Z,40.10
2022-10-30T17:58:57.616Z,36.05
2022-10-30T18:02:01.278Z,38.45
2022-10-30T18:05:12.416Z,45.50
2022-10-30T18:08:15.862Z,42.83
2022-10-30T18:11:22.935Z,44.67
2022-10-30T18:14:28.467Z,46.17
2022-10-30T18:17:31.913Z,39.47
2022-10-30T18:20:35.554Z,48.95
2022-10-30T18:23:51.854Z,55.58
2022-10-30T18:27:05.660Z,54.58
2022-10-30T18:30:10.496Z,57.03
2022-10-30T18:33:14.007Z,53.15
2022-10-30T18:36:19.037Z,46.33
2022-10-30T18:39:22.591Z,47.35
2022-10-30T18:42:27.226Z,49.88
2022-10-30T18:45:34.194Z,46.40
2022-10-30T18:48:37.455Z,48.25
2022-10-30T18:51:41.067Z,42.97
2022-10-30T18:54:44.552Z,49.47
2022-10-30T18:57:50.166Z,43.13
2022-10-30T19:04:21.733Z,43.88
2022-10-30T19:07:25.554Z,41.88
2022-10-30T19:10:34.444Z,37.80
2022-10-30T19:13:40.213Z,35.80
2022-10-30T19:16:43.859Z,34.92
2022-10-30T19:19:47.323Z,44.72
2022-10-30T19:22:50.546Z,39.10
2022-10-30T19:25:54.515Z,41.83
2022-10-30T19:28:59.577Z,41.83
2022-10-30T19:32:03.057Z,38.30
2022-10-30T19:35:07.211Z,37.45
2022-10-30T19:38:11.664Z,42.40
2022-10-30T19:41:15.107Z,37.85
2022-10-30T19:44:19.864Z,41.22
2022-10-30T19:47:23.824Z,49.17
2022-10-30T19:50:29.973Z,41.38
2022-10-30T19:53:33.599Z,49.10
2022-10-30T19:56:37.994Z,43.15
2022-10-30T19:59:44.017Z,41.08
2022-10-30T20:02:48.075Z,46.92
2022-10-30T20:05:56.790Z,49.03
2022-10-30T20:09:02.517Z,58.42
2022-10-30T20:12:06.941Z,55.15
2022-10-30T20:15:16.118Z,54.88
2022-10-30T20:18:21.269Z,59.22
2022-10-30T20:21:28.464Z,48.70
2022-10-30T20:24:32.680Z,51.60
2022-10-30T20:27:36.500Z,54.78
2022-10-30T20:30:41.412Z,51.28
2022-10-30T20:33:46.725Z,50.67
2022-10-30T20:36:50.485Z,44.55
2022-10-30T20:39:53.838Z,62.00
2022-10-30T20:43:02.667Z,73.80
2022-10-30T20:46:11.148Z,74.03
2022-10-30T20:49:17.729Z,73.10
2022-10-30T20:52:21.975Z,76.30
2022-10-30T20:55:25.418Z,69.10
2022-10-30T20:58:28.972Z,67.68
2022-10-30T21:01:34.005Z,71.45
2022-10-30T21:04:37.648Z,64.85
2022-10-30T21:07:41.030Z,68.50
2022-10-30T21:10:44.723Z,74.95
2022-10-30T21:13:48.147Z,71.38
2022-10-30T21:16:53.355Z,65.15
2022-10-30T21:19:56.765Z,65.28
2022-10-30T21:23:00.558Z,64.95
2022-10-30T21:26:05.871Z,68.13
2022-10-30T21:29:09.951Z,73.20
2022-10-30T21:32:15.663Z,71.57
2022-10-30T21:35:19.676Z,71.10
2022-10-30T21:38:23.065Z,72.50
2022-10-30T21:41:26.598Z,72.55
2022-10-30T21:44:30.145Z,67.75
2022-10-30T21:47:34.867Z,65.53
2022-10-30T21:50:38.144Z,70.53
2022-10-30T21:53:42.051Z,75.45
2022-10-30T21:56:45.694Z,68.07
2022-10-30T21:59:49.318Z,66.07
2022-10-30T22:02:56.224Z,65.65
2022-10-30T22:06:00.018Z,70.97
2022-10-30T22:09:03.774Z,65.18
2022-10-30T22:12:07.779Z,64.68
2022-10-30T22:15:11.575Z,55.30
2022-10-30T22:18:16.404Z,58.95
2022-10-30T22:21:20.027Z,64.53
2022-10-30T22:24:23.280Z,66.05
2022-10-30T22:27:27.396Z,68.05
2022-10-30T22:30:30.779Z,62.75
2022-10-30T22:33:37.274Z,63.80
2022-10-30T22:36:40.652Z,60.42
2022-10-30T22:39:43.965Z,56.83
2022-10-30T22:42:47.954Z,55.25
2022-10-30T22:45:54.907Z,51.20
2022-10-30T22:48:59.955Z,54.47
2022-10-30T22:52:03.267Z,55.45
2022-10-30T22:55:07.486Z,58.15
2022-10-30T22:58:10.830Z,55.13
2022-10-30T23:01:16.076Z,52.55
2022-10-30T23:04:20.840Z,63.75
2022-10-30T23:07:24.383Z,62.63
2022-10-30T23:10:28.574Z,56.97
2022-10-30T23:13:33.047Z,64.50
2022-10-30T23:16:36.462Z,58.80
2022-10-30T23:19:41.205Z,58.65
2022-10-30T23:22:44.458Z,54.17
2022-10-30T23:25:47.688Z,58.72
2022-10-30T23:28:53.354Z,54.70
2022-10-30T23:31:56.837Z,52.05
2022-10-30T23:35:01.429Z,56.40
2022-10-30T23:38:06.246Z,54.25
2022-10-30T23:41:09.843Z,66.55
2022-10-30T23:44:15.511Z,56.40
2022-10-30T23:47:18.827Z,59.45
2022-10-30T23:50:23.519Z,58.20
2022-10-30T23:53:27.050Z,61.67
2022-10-30T23:56:30.560Z,59.92
2022-10-30T23:59:33.810Z,62.08
